sensor_id;sensor_type;location;lat;lon;timestamp;P1;durP1;ratioP1;P2;durP2;ratioP2
8610;SDS011;4343;53.648;10.098;2023-07-09T00:01:48;6.40;;;2.05;;
8610;SDS011;4343;53.648;10.098;2023-07-09T00:04:14;5.38;;;2.15;;
8610;SDS011;4343;53.648;10.098;2023-07-09T00:06:39;2.60;;;2.40;;
8610;SDS011;4343;53.648;10.098;2023-07-09T00:09:09;2.10;;;2.00;;
8610;SDS011;4343;53.648;10.098;2023-07-09T00:11:38;2.40;;;2.20;;
8610;SDS011;4343;53.648;10.098;2023-07-09T00:14:05;2.35;;;2.25;;
8610;SDS011;4343;53.648;10.098;2023-07-09T00:16:31;1.80;;;1.70;;
8610;SDS011;4343;53.648;10.098;2023-07-09T00:18:56;2.13;;;2.03;;
8610;SDS011;4343;53.648;10.098;2023-07-09T00:21:22;2.47;;;2.28;;
8610;SDS011;4343;53.648;10.098;2023-07-09T00:23:48;2.33;;;2.10;;
8610;SDS011;4343;53.648;10.098;2023-07-09T00:26:14;2.00;;;1.90;;
8610;SDS011;4343;53.648;10.098;2023-07-09T00:28:41;7.85;;;2.20;;
8610;SDS011;4343;53.648;10.098;2023-07-09T00:31:12;1.80;;;1.70;;
8610;SDS011;4343;53.648;10.098;2023-07-09T00:33:39;1.80;;;1.80;;
8610;SDS011;4343;53.648;10.098;2023-07-09T00:36:47;2.33;;;2.13;;
8610;SDS011;4343;53.648;10.098;2023-07-09T00:38:57;2.33;;;2.10;;
8610;SDS011;4343;53.648;10.098;2023-07-09T00:41:31;2.28;;;2.15;;
8610;SDS011;4343;53.648;10.098;2023-07-09T00:43:59;1.92;;;1.83;;
8610;SDS011;4343;53.648;10.098;2023-07-09T00:49:32;2.50;;;2.40;;
8610;SDS011;4343;53.648;10.098;2023-07-09T00:52:01;2.33;;;2.25;;
8610;SDS011;4343;53.648;10.098;2023-07-09T00:54:39;2.20;;;2.10;;
8610;SDS011;4343;53.648;10.098;2023-07-09T00:57:09;2.38;;;2.22;;
8610;SDS011;4343;53.648;10.098;2023-07-09T00:59:37;2.92;;;2.30;;
8610;SDS011;4343;53.648;10.098;2023-07-09T01:02:05;2.00;;;1.90;;
8610;SDS011;4343;53.648;10.098;2023-07-09T01:04:33;2.20;;;2.10;;
8610;SDS011;4343;53.648;10.098;2023-07-09T01:06:59;2.40;;;2.30;;
8610;SDS011;4343;53.648;10.098;2023-07-09T01:09:25;2.35;;;2.25;;
8610;SDS011;4343;53.648;10.098;2023-07-09T01:11:51;2.10;;;2.00;;
8610;SDS011;4343;53.648;10.098;2023-07-09T01:14:21;2.25;;;2.15;;
8610;SDS011;4343;53.648;10.098;2023-07-09T01:16:50;2.28;;;2.17;;
8610;SDS011;4343;53.648;10.098;2023-07-09T01:19:22;3.67;;;2.20;;
8610;SDS011;4343;53.648;10.098;2023-07-09T01:21:52;1.90;;;1.80;;
8610;SDS011;4343;53.648;10.098;2023-07-09T01:27:11;2.38;;;2.28;;
8610;SDS011;4343;53.648;10.098;2023-07-09T01:29:37;4.13;;;2.38;;
8610;SDS011;4343;53.648;10.098;2023-07-09T01:32:03;2.28;;;2.17;;
8610;SDS011;4343;53.648;10.098;2023-07-09T01:34:29;2.00;;;1.90;;
8610;SDS011;4343;53.648;10.098;2023-07-09T01:36:55;2.15;;;2.05;;
8610;SDS011;4343;53.648;10.098;2023-07-09T01:39:21;2.97;;;2.15;;
8610;SDS011;4343;53.648;10.098;2023-07-09T01:41:46;3.22;;;2.20;;
8610;SDS011;4343;53.648;10.098;2023-07-09T01:44:13;2.10;;;2.10;;
8610;SDS011;4343;53.648;10.098;2023-07-09T01:46:38;2.33;;;2.22;;
8610;SDS011;4343;53.648;10.098;2023-07-09T01:49:04;2.00;;;1.90;;
8610;SDS011;4343;53.648;10.098;2023-07-09T01:51:32;2.00;;;1.90;;
8610;SDS011;4343;53.648;10.098;2023-07-09T01:53:58;2.33;;;2.22;;
8610;SDS011;4343;53.648;10.098;2023-07-09T01:56:24;2.38;;;2.17;;
8610;SDS011;4343;53.648;10.098;2023-07-09T01:58:50;2.17;;;2.08;;
8610;SDS011;4343;53.648;10.098;2023-07-09T02:01:16;2.50;;;2.40;;
8610;SDS011;4343;53.648;10.098;2023-07-09T02:03:44;2.50;;;2.30;;
8610;SDS011;4343;53.648;10.098;2023-07-09T02:06:10;2.33;;;2.22;;
8610;SDS011;4343;53.648;10.098;2023-07-09T02:08:36;2.42;;;2.22;;
8610;SDS011;4343;53.648;10.098;2023-07-09T02:11:02;2.67;;;2.58;;
8610;SDS011;4343;53.648;10.098;2023-07-09T02:13:27;2.50;;;2.30;;
8610;SDS011;4343;53.648;10.098;2023-07-09T02:15:53;2.45;;;2.08;;
8610;SDS011;4343;53.648;10.098;2023-07-09T02:18:18;2.78;;;2.67;;
8610;SDS011;4343;53.648;10.098;2023-07-09T02:20:47;2.67;;;2.47;;
8610;SDS011;4343;53.648;10.098;2023-07-09T02:23:12;2.22;;;2.13;;
8610;SDS011;4343;53.648;10.098;2023-07-09T02:25:38;2.15;;;2.03;;
8610;SDS011;4343;53.648;10.098;2023-07-09T02:28:04;2.08;;;1.98;;
8610;SDS011;4343;53.648;10.098;2023-07-09T02:30:29;2.20;;;2.10;;
8610;SDS011;4343;53.648;10.098;2023-07-09T02:32:55;2.20;;;2.10;;
8610;SDS011;4343;53.648;10.098;2023-07-09T02:35:21;2.30;;;2.20;;
8610;SDS011;4343;53.648;10.098;2023-07-09T02:37:47;2.33;;;2.22;;
8610;SDS011;4343;53.648;10.098;2023-07-09T02:40:13;2.05;;;1.95;;
8610;SDS011;4343;53.648;10.098;2023-07-09T02:42:40;1.92;;;1.83;;
8610;SDS011;4343;53.648;10.098;2023-07-09T02:45:05;2.20;;;2.10;;
8610;SDS011;4343;53.648;10.098;2023-07-09T02:47:31;2.10;;;1.98;;
8610;SDS011;4343;53.648;10.098;2023-07-09T02:49:56;2.47;;;2.30;;
8610;SDS011;4343;53.648;10.098;2023-07-09T02:52:22;2.30;;;2.20;;
8610;SDS011;4343;53.648;10.098;2023-07-09T02:54:47;2.13;;;2.03;;
8610;SDS011;4343;53.648;10.098;2023-07-09T02:57:13;2.25;;;2.15;;
8610;SDS011;4343;53.648;10.098;2023-07-09T02:59:39;2.85;;;2.65;;
8610;SDS011;4343;53.648;10.098;2023-07-09T03:02:04;2.72;;;2.53;;
8610;SDS011;4343;53.648;10.098;2023-07-09T03:04:30;2.15;;;2.13;;
8610;SDS011;4343;53.648;10.098;2023-07-09T03:06:58;2.35;;;2.25;;
8610;SDS011;4343;53.648;10.098;2023-07-09T03:09:24;2.50;;;2.40;;
8610;SDS011;4343;53.648;10.098;2023-07-09T03:11:50;2.28;;;2.17;;
8610;SDS011;4343;53.648;10.098;2023-07-09T03:14:16;2.50;;;2.25;;
8610;SDS011;4343;53.648;10.098;2023-07-09T03:16:42;3.00;;;2.38;;
8610;SDS011;4343;53.648;10.098;2023-07-09T03:19:07;2.30;;;2.20;;
8610;SDS011;4343;53.648;10.098;2023-07-09T03:21:33;2.25;;;2.15;;
8610;SDS011;4343;53.648;10.098;2023-07-09T03:23:59;2.60;;;2.47;;
8610;SDS011;4343;53.648;10.098;2023-07-09T03:26:25;2.47;;;2.35;;
8610;SDS011;4343;53.648;10.098;2023-07-09T03:28:51;2.80;;;2.50;;
8610;SDS011;4343;53.648;10.098;2023-07-09T03:31:17;2.22;;;1.92;;
8610;SDS011;4343;53.648;10.098;2023-07-09T03:33:43;2.65;;;2.45;;
8610;SDS011;4343;53.648;10.098;2023-07-09T03:36:10;2.78;;;2.58;;
8610;SDS011;4343;53.648;10.098;2023-07-09T03:38:36;2.33;;;2.17;;
8610;SDS011;4343;53.648;10.098;2023-07-09T03:41:01;2.30;;;2.20;;
8610;SDS011;4343;53.648;10.098;2023-07-09T03:43:27;3.90;;;3.08;;
8610;SDS011;4343;53.648;10.098;2023-07-09T03:45:52;2.60;;;2.40;;
8610;SDS011;4343;53.648;10.098;2023-07-09T03:48:18;1.85;;;1.85;;
8610;SDS011;4343;53.648;10.098;2023-07-09T03:50:45;2.45;;;2.35;;
8610;SDS011;4343;53.648;10.098;2023-07-09T03:53:12;2.47;;;2.38;;
8610;SDS011;4343;53.648;10.098;2023-07-09T03:55:38;2.10;;;2.00;;
8610;SDS011;4343;53.648;10.098;2023-07-09T03:58:03;2.50;;;2.40;;
8610;SDS011;4343;53.648;10.098;2023-07-09T04:00:30;2.60;;;2.50;;
8610;SDS011;4343;53.648;10.098;2023-07-09T04:02:56;2.40;;;2.30;;
8610;SDS011;4343;53.648;10.098;2023-07-09T04:05:22;2.08;;;1.98;;
8610;SDS011;4343;53.648;10.098;2023-07-09T04:07:48;2.35;;;2.15;;
8610;SDS011;4343;53.648;10.098;2023-07-09T04:10:14;1.92;;;1.92;;
8610;SDS011;4343;53.648;10.098;2023-07-09T04:12:39;2.17;;;2.08;;
8610;SDS011;4343;53.648;10.098;2023-07-09T04:15:05;2.20;;;2.10;;
8610;SDS011;4343;53.648;10.098;2023-07-09T04:17:31;2.60;;;2.40;;
8610;SDS011;4343;53.648;10.098;2023-07-09T04:19:57;2.22;;;2.17;;
8610;SDS011;4343;53.648;10.098;2023-07-09T04:22:22;2.35;;;2.25;;
8610;SDS011;4343;53.648;10.098;2023-07-09T04:24:48;3.53;;;2.08;;
8610;SDS011;4343;53.648;10.098;2023-07-09T04:27:14;2.30;;;2.20;;
8610;SDS011;4343;53.648;10.098;2023-07-09T04:29:41;3.50;;;2.65;;
8610;SDS011;4343;53.648;10.098;2023-07-09T04:32:12;2.35;;;2.28;;
8610;SDS011;4343;53.648;10.098;2023-07-09T04:34:38;2.45;;;2.35;;
8610;SDS011;4343;53.648;10.098;2023-07-09T04:37:06;2.33;;;2.22;;
8610;SDS011;4343;53.648;10.098;2023-07-09T04:39:32;2.20;;;2.10;;
8610;SDS011;4343;53.648;10.098;2023-07-09T04:41:58;2.20;;;2.10;;
8610;SDS011;4343;53.648;10.098;2023-07-09T04:44:24;2.38;;;2.28;;
8610;SDS011;4343;53.648;10.098;2023-07-09T04:46:49;3.38;;;2.10;;
8610;SDS011;4343;53.648;10.098;2023-07-09T04:49:15;2.38;;;2.20;;
8610;SDS011;4343;53.648;10.098;2023-07-09T04:51:41;2.47;;;2.38;;
8610;SDS011;4343;53.648;10.098;2023-07-09T04:54:06;2.28;;;2.17;;
8610;SDS011;4343;53.648;10.098;2023-07-09T04:56:32;2.45;;;2.35;;
8610;SDS011;4343;53.648;10.098;2023-07-09T04:58:57;2.58;;;2.38;;
8610;SDS011;4343;53.648;10.098;2023-07-09T05:01:23;2.70;;;2.60;;
8610;SDS011;4343;53.648;10.098;2023-07-09T05:03:48;2.60;;;2.40;;
8610;SDS011;4343;53.648;10.098;2023-07-09T05:06:14;2.35;;;2.22;;
8610;SDS011;4343;53.648;10.098;2023-07-09T05:08:40;2.88;;;2.33;;
8610;SDS011;4343;53.648;10.098;2023-07-09T05:11:06;2.00;;;1.90;;
8610;SDS011;4343;53.648;10.098;2023-07-09T05:13:32;2.53;;;1.95;;
8610;SDS011;4343;53.648;10.098;2023-07-09T05:15:58;2.15;;;2.05;;
8610;SDS011;4343;53.648;10.098;2023-07-09T05:18:23;2.50;;;2.40;;
8610;SDS011;4343;53.648;10.098;2023-07-09T05:20:49;2.80;;;2.60;;
8610;SDS011;4343;53.648;10.098;2023-07-09T05:23:14;2.50;;;2.40;;
8610;SDS011;4343;53.648;10.098;2023-07-09T05:25:40;2.38;;;2.22;;
8610;SDS011;4343;53.648;10.098;2023-07-09T05:28:06;2.30;;;2.20;;
8610;SDS011;4343;53.648;10.098;2023-07-09T05:30:31;2.42;;;2.33;;
8610;SDS011;4343;53.648;10.098;2023-07-09T05:32:57;2.17;;;2.08;;
8610;SDS011;4343;53.648;10.098;2023-07-09T05:35:24;2.53;;;2.40;;
8610;SDS011;4343;53.648;10.098;2023-07-09T05:37:51;2.80;;;2.60;;
8610;SDS011;4343;53.648;10.098;2023-07-09T05:40:20;2.67;;;2.58;;
8610;SDS011;4343;53.648;10.098;2023-07-09T05:42:47;2.42;;;2.33;;
8610;SDS011;4343;53.648;10.098;2023-07-09T05:45:14;2.75;;;2.55;;
8610;SDS011;4343;53.648;10.098;2023-07-09T05:47:40;2.60;;;2.50;;
8610;SDS011;4343;53.648;10.098;2023-07-09T05:50:06;2.33;;;2.20;;
8610;SDS011;4343;53.648;10.098;2023-07-09T05:52:32;2.40;;;2.30;;
8610;SDS011;4343;53.648;10.098;2023-07-09T05:54:58;2.63;;;2.53;;
8610;SDS011;4343;53.648;10.098;2023-07-09T05:57:24;2.67;;;2.47;;
8610;SDS011;4343;53.648;10.098;2023-07-09T05:59:50;2.95;;;2.67;;
8610;SDS011;4343;53.648;10.098;2023-07-09T06:02:17;2.65;;;2.47;;
8610;SDS011;4343;53.648;10.098;2023-07-09T06:04:44;2.38;;;2.38;;
8610;SDS011;4343;53.648;10.098;2023-07-09T06:07:10;3.00;;;2.80;;
8610;SDS011;4343;53.648;10.098;2023-07-09T06:09:38;2.75;;;2.60;;
8610;SDS011;4343;53.648;10.098;2023-07-09T06:12:04;2.63;;;2.42;;
8610;SDS011;4343;53.648;10.098;2023-07-09T06:14:30;2.75;;;2.55;;
8610;SDS011;4343;53.648;10.098;2023-07-09T06:16:57;2.40;;;2.30;;
8610;SDS011;4343;53.648;10.098;2023-07-09T06:19:23;2.75;;;2.60;;
8610;SDS011;4343;53.648;10.098;2023-07-09T06:21:48;2.78;;;2.67;;
8610;SDS011;4343;53.648;10.098;2023-07-09T06:24:14;2.40;;;2.30;;
8610;SDS011;4343;53.648;10.098;2023-07-09T06:26:39;2.92;;;2.70;;
8610;SDS011;4343;53.648;10.098;2023-07-09T06:33:56;2.92;;;2.60;;
8610;SDS011;4343;53.648;10.098;2023-07-09T06:36:21;3.03;;;2.83;;
8610;SDS011;4343;53.648;10.098;2023-07-09T06:38:47;2.50;;;2.40;;
8610;SDS011;4343;53.648;10.098;2023-07-09T06:41:13;2.80;;;2.70;;
8610;SDS011;4343;53.648;10.098;2023-07-09T06:43:39;2.67;;;2.50;;
8610;SDS011;4343;53.648;10.098;2023-07-09T06:46:05;2.88;;;2.70;;
8610;SDS011;4343;53.648;10.098;2023-07-09T06:48:34;2.60;;;2.50;;
8610;SDS011;4343;53.648;10.098;2023-07-09T06:50:59;2.50;;;2.40;;
8610;SDS011;4343;53.648;10.098;2023-07-09T06:53:26;2.80;;;2.60;;
8610;SDS011;4343;53.648;10.098;2023-07-09T06:55:53;2.90;;;2.70;;
8610;SDS011;4343;53.648;10.098;2023-07-09T06:58:20;2.90;;;2.70;;
8610;SDS011;4343;53.648;10.098;2023-07-09T07:00:48;3.20;;;3.00;;
8610;SDS011;4343;53.648;10.098;2023-07-09T07:03:14;3.22;;;2.90;;
8610;SDS011;4343;53.648;10.098;2023-07-09T07:05:47;2.85;;;2.75;;
8610;SDS011;4343;53.648;10.098;2023-07-09T07:08:14;3.20;;;2.63;;
8610;SDS011;4343;53.648;10.098;2023-07-09T07:10:42;2.55;;;2.45;;
8610;SDS011;4343;53.648;10.098;2023-07-09T07:13:09;3.08;;;2.88;;
8610;SDS011;4343;53.648;10.098;2023-07-09T07:15:36;2.50;;;2.40;;
8610;SDS011;4343;53.648;10.098;2023-07-09T07:18:03;2.63;;;2.53;;
8610;SDS011;4343;53.648;10.098;2023-07-09T07:20:29;2.65;;;2.55;;
8610;SDS011;4343;53.648;10.098;2023-07-09T07:22:55;3.20;;;2.33;;
8610;SDS011;4343;53.648;10.098;2023-07-09T07:25:22;2.78;;;2.58;;
8610;SDS011;4343;53.648;10.098;2023-07-09T07:27:48;2.90;;;2.80;;
8610;SDS011;4343;53.648;10.098;2023-07-09T07:30:13;2.70;;;2.60;;
8610;SDS011;4343;53.648;10.098;2023-07-09T07:32:44;2.70;;;2.60;;
8610;SDS011;4343;53.648;10.098;2023-07-09T07:35:11;3.05;;;2.83;;
8610;SDS011;4343;53.648;10.098;2023-07-09T07:37:38;3.13;;;2.92;;
8610;SDS011;4343;53.648;10.098;2023-07-09T07:40:04;3.22;;;2.78;;
8610;SDS011;4343;53.648;10.098;2023-07-09T07:42:30;3.22;;;2.92;;
8610;SDS011;4343;53.648;10.098;2023-07-09T07:44:56;2.75;;;2.60;;
8610;SDS011;4343;53.648;10.098;2023-07-09T07:47:21;3.00;;;2.90;;
8610;SDS011;4343;53.648;10.098;2023-07-09T07:49:47;2.90;;;2.70;;
8610;SDS011;4343;53.648;10.098;2023-07-09T07:52:12;3.13;;;2.92;;
8610;SDS011;4343;53.648;10.098;2023-07-09T07:54:38;2.72;;;2.60;;
8610;SDS011;4343;53.648;10.098;2023-07-09T07:57:04;3.33;;;3.10;;
8610;SDS011;4343;53.648;10.098;2023-07-09T07:59:30;3.20;;;3.00;;
8610;SDS011;4343;53.648;10.098;2023-07-09T08:01:59;2.75;;;2.65;;
8610;SDS011;4343;53.648;10.098;2023-07-09T08:04:25;3.22;;;3.13;;
8610;SDS011;4343;53.648;10.098;2023-07-09T08:06:50;3.05;;;2.95;;
8610;SDS011;4343;53.648;10.098;2023-07-09T08:09:17;2.88;;;2.65;;
8610;SDS011;4343;53.648;10.098;2023-07-09T08:11:42;3.22;;;3.03;;
8610;SDS011;4343;53.648;10.098;2023-07-09T08:14:09;2.53;;;2.42;;
8610;SDS011;4343;53.648;10.098;2023-07-09T08:16:35;2.90;;;2.78;;
8610;SDS011;4343;53.648;10.098;2023-07-09T08:19:01;2.90;;;2.80;;
8610;SDS011;4343;53.648;10.098;2023-07-09T08:21:26;4.20;;;2.72;;
8610;SDS011;4343;53.648;10.098;2023-07-09T08:23:52;4.07;;;3.38;;
8610;SDS011;4343;53.648;10.098;2023-07-09T08:26:17;2.85;;;2.75;;
8610;SDS011;4343;53.648;10.098;2023-07-09T08:28:43;3.05;;;2.78;;
8610;SDS011;4343;53.648;10.098;2023-07-09T08:31:09;3.10;;;2.90;;
8610;SDS011;4343;53.648;10.098;2023-07-09T08:33:34;2.90;;;2.72;;
8610;SDS011;4343;53.648;10.098;2023-07-09T08:36:01;2.78;;;2.67;;
8610;SDS011;4343;53.648;10.098;2023-07-09T08:38:26;3.47;;;3.10;;
8610;SDS011;4343;53.648;10.098;2023-07-09T08:40:54;2.95;;;2.83;;
8610;SDS011;4343;53.648;10.098;2023-07-09T08:45:58;3.00;;;2.53;;
8610;SDS011;4343;53.648;10.098;2023-07-09T08:48:35;3.42;;;3.20;;
8610;SDS011;4343;53.648;10.098;2023-07-09T08:51:04;3.00;;;2.90;;
8610;SDS011;4343;53.648;10.098;2023-07-09T08:53:58;2.55;;;2.45;;
8610;SDS011;4343;53.648;10.098;2023-07-09T08:56:26;2.97;;;2.83;;
8610;SDS011;4343;53.648;10.098;2023-07-09T08:58:55;3.00;;;2.80;;
8610;SDS011;4343;53.648;10.098;2023-07-09T09:01:36;3.17;;;3.03;;
8610;SDS011;4343;53.648;10.098;2023-07-09T09:04:08;3.53;;;3.28;;
8610;SDS011;4343;53.648;10.098;2023-07-09T09:06:42;3.38;;;3.08;;
8610;SDS011;4343;53.648;10.098;2023-07-09T09:14:53;3.20;;;3.00;;
8610;SDS011;4343;53.648;10.098;2023-07-09T09:17:26;3.70;;;3.20;;
8610;SDS011;4343;53.648;10.098;2023-07-09T09:19:54;3.42;;;3.20;;
8610;SDS011;4343;53.648;10.098;2023-07-09T09:22:33;2.70;;;2.60;;
8610;SDS011;4343;53.648;10.098;2023-07-09T09:27:54;3.05;;;2.85;;
8610;SDS011;4343;53.648;10.098;2023-07-09T09:30:22;3.28;;;3.17;;
8610;SDS011;4343;53.648;10.098;2023-07-09T09:33:02;3.10;;;3.00;;
8610;SDS011;4343;53.648;10.098;2023-07-09T09:35:33;3.08;;;2.97;;
8610;SDS011;4343;53.648;10.098;2023-07-09T09:38:01;3.25;;;3.00;;
8610;SDS011;4343;53.648;10.098;2023-07-09T09:40:28;4.00;;;3.80;;
8610;SDS011;4343;53.648;10.098;2023-07-09T09:42:58;2.97;;;2.78;;
8610;SDS011;4343;53.648;10.098;2023-07-09T09:45:33;3.35;;;3.25;;
8610;SDS011;4343;53.648;10.098;2023-07-09T09:48:00;3.70;;;3.40;;
8610;SDS011;4343;53.648;10.098;2023-07-09T09:50:35;3.42;;;3.22;;
8610;SDS011;4343;53.648;10.098;2023-07-09T09:53:00;3.13;;;3.03;;
8610;SDS011;4343;53.648;10.098;2023-07-09T09:55:30;3.75;;;3.42;;
8610;SDS011;4343;53.648;10.098;2023-07-09T09:57:57;4.05;;;3.70;;
8610;SDS011;4343;53.648;10.098;2023-07-09T10:00:25;3.55;;;3.45;;
8610;SDS011;4343;53.648;10.098;2023-07-09T10:03:31;3.70;;;3.50;;
8610;SDS011;4343;53.648;10.098;2023-07-09T10:05:46;3.85;;;3.53;;
8610;SDS011;4343;53.648;10.098;2023-07-09T10:10:49;3.28;;;3.17;;
8610;SDS011;4343;53.648;10.098;2023-07-09T10:13:22;3.55;;;3.35;;
8610;SDS011;4343;53.648;10.098;2023-07-09T10:18:38;6.75;;;3.70;;
8610;SDS011;4343;53.648;10.098;2023-07-09T10:21:38;3.53;;;3.22;;
8610;SDS011;4343;53.648;10.098;2023-07-09T10:27:07;3.50;;;3.40;;
8610;SDS011;4343;53.648;10.098;2023-07-09T10:29:51;3.42;;;3.33;;
8610;SDS011;4343;53.648;10.098;2023-07-09T10:32:43;3.55;;;3.35;;
8610;SDS011;4343;53.648;10.098;2023-07-09T10:35:48;5.63;;;3.65;;
8610;SDS011;4343;53.648;10.098;2023-07-09T10:41:07;3.22;;;3.13;;
8610;SDS011;4343;53.648;10.098;2023-07-09T10:43:37;4.85;;;3.75;;
8610;SDS011;4343;53.648;10.098;2023-07-09T10:46:16;3.45;;;3.15;;
8610;SDS011;4343;53.648;10.098;2023-07-09T10:48:52;10.23;;;3.88;;
8610;SDS011;4343;53.648;10.098;2023-07-09T10:51:22;3.80;;;3.50;;
8610;SDS011;4343;53.648;10.098;2023-07-09T10:53:58;3.63;;;3.47;;
8610;SDS011;4343;53.648;10.098;2023-07-09T10:56:27;4.13;;;3.92;;
8610;SDS011;4343;53.648;10.098;2023-07-09T10:59:05;4.13;;;3.88;;
8610;SDS011;4343;53.648;10.098;2023-07-09T11:01:45;3.97;;;3.67;;
8610;SDS011;4343;53.648;10.098;2023-07-09T11:10:17;3.47;;;3.38;;
8610;SDS011;4343;53.648;10.098;2023-07-09T11:12:56;6.38;;;4.07;;
8610;SDS011;4343;53.648;10.098;2023-07-09T11:15:30;4.93;;;4.35;;
8610;SDS011;4343;53.648;10.098;2023-07-09T11:17:59;3.60;;;3.45;;
8610;SDS011;4343;53.648;10.098;2023-07-09T11:20:31;3.92;;;3.60;;
8610;SDS011;4343;53.648;10.098;2023-07-09T11:23:03;4.03;;;3.83;;
8610;SDS011;4343;53.648;10.098;2023-07-09T11:25:40;4.10;;;3.90;;
8610;SDS011;4343;53.648;10.098;2023-07-09T11:28:11;4.75;;;4.25;;
8610;SDS011;4343;53.648;10.098;2023-07-09T11:30:50;4.20;;;3.65;;
8610;SDS011;4343;53.648;10.098;2023-07-09T11:33:20;3.97;;;3.67;;
8610;SDS011;4343;53.648;10.098;2023-07-09T11:35:53;3.90;;;3.70;;
8610;SDS011;4343;53.648;10.098;2023-07-09T11:38:38;3.45;;;3.35;;
8610;SDS011;4343;53.648;10.098;2023-07-09T11:41:24;3.83;;;3.63;;
8610;SDS011;4343;53.648;10.098;2023-07-09T11:43:50;4.03;;;3.90;;
8610;SDS011;4343;53.648;10.098;2023-07-09T11:46:20;4.60;;;4.07;;
8610;SDS011;4343;53.648;10.098;2023-07-09T11:48:51;4.18;;;3.80;;
8610;SDS011;4343;53.648;10.098;2023-07-09T11:51:23;4.18;;;3.97;;
8610;SDS011;4343;53.648;10.098;2023-07-09T11:54:03;4.25;;;3.83;;
8610;SDS011;4343;53.648;10.098;2023-07-09T11:56:29;4.13;;;3.78;;
8610;SDS011;4343;53.648;10.098;2023-07-09T11:58:56;4.60;;;4.03;;
8610;SDS011;4343;53.648;10.098;2023-07-09T12:01:23;4.03;;;3.72;;
8610;SDS011;4343;53.648;10.098;2023-07-09T12:03:51;4.20;;;4.00;;
8610;SDS011;4343;53.648;10.098;2023-07-09T12:06:23;4.13;;;3.83;;
8610;SDS011;4343;53.648;10.098;2023-07-09T12:08:51;4.57;;;4.28;;
8610;SDS011;4343;53.648;10.098;2023-07-09T12:11:22;4.28;;;4.07;;
8610;SDS011;4343;53.648;10.098;2023-07-09T12:13:53;5.13;;;4.63;;
8610;SDS011;4343;53.648;10.098;2023-07-09T12:16:27;4.22;;;4.03;;
8610;SDS011;4343;53.648;10.098;2023-07-09T12:18:55;5.03;;;4.72;;
8610;SDS011;4343;53.648;10.098;2023-07-09T12:21:21;4.85;;;4.50;;
8610;SDS011;4343;53.648;10.098;2023-07-09T12:23:49;4.30;;;4.10;;
8610;SDS011;4343;53.648;10.098;2023-07-09T12:26:16;6.80;;;4.70;;
8610;SDS011;4343;53.648;10.098;2023-07-09T12:28:48;4.63;;;4.43;;
8610;SDS011;4343;53.648;10.098;2023-07-09T12:31:26;4.55;;;4.35;;
8610;SDS011;4343;53.648;10.098;2023-07-09T12:33:54;5.80;;;3.97;;
8610;SDS011;4343;53.648;10.098;2023-07-09T12:36:22;4.57;;;4.10;;
8610;SDS011;4343;53.648;10.098;2023-07-09T12:38:49;4.65;;;4.32;;
8610;SDS011;4343;53.648;10.098;2023-07-09T12:41:28;4.40;;;4.18;;
8610;SDS011;4343;53.648;10.098;2023-07-09T12:43:56;4.50;;;4.20;;
8610;SDS011;4343;53.648;10.098;2023-07-09T12:46:22;4.97;;;4.57;;
8610;SDS011;4343;53.648;10.098;2023-07-09T12:48:48;4.78;;;4.32;;
8610;SDS011;4343;53.648;10.098;2023-07-09T12:51:24;4.45;;;4.22;;
8610;SDS011;4343;53.648;10.098;2023-07-09T12:54:03;4.75;;;4.32;;
8610;SDS011;4343;53.648;10.098;2023-07-09T12:56:37;4.43;;;4.22;;
8610;SDS011;4343;53.648;10.098;2023-07-09T12:59:06;4.50;;;4.20;;
8610;SDS011;4343;53.648;10.098;2023-07-09T13:01:46;5.13;;;4.72;;
8610;SDS011;4343;53.648;10.098;2023-07-09T13:04:13;4.45;;;4.25;;
8610;SDS011;4343;53.648;10.098;2023-07-09T13:06:38;4.20;;;4.00;;
8610;SDS011;4343;53.648;10.098;2023-07-09T13:09:37;4.53;;;4.22;;
8610;SDS011;4343;53.648;10.098;2023-07-09T13:11:56;4.68;;;4.22;;
8610;SDS011;4343;53.648;10.098;2023-07-09T13:14:25;4.60;;;4.40;;
8610;SDS011;4343;53.648;10.098;2023-07-09T13:16:52;4.90;;;4.60;;
8610;SDS011;4343;53.648;10.098;2023-07-09T13:19:26;5.00;;;4.50;;
8610;SDS011;4343;53.648;10.098;2023-07-09T13:21:52;5.65;;;4.93;;
8610;SDS011;4343;53.648;10.098;2023-07-09T13:24:25;4.85;;;4.55;;
8610;SDS011;4343;53.648;10.098;2023-07-09T13:26:54;6.88;;;4.68;;
8610;SDS011;4343;53.648;10.098;2023-07-09T13:29:21;4.63;;;4.32;;
8610;SDS011;4343;53.648;10.098;2023-07-09T13:31:47;4.35;;;4.15;;
8610;SDS011;4343;53.648;10.098;2023-07-09T13:34:20;4.72;;;4.32;;
8610;SDS011;4343;53.648;10.098;2023-07-09T13:36:47;4.97;;;4.35;;
8610;SDS011;4343;53.648;10.098;2023-07-09T13:39:13;4.65;;;4.40;;
8610;SDS011;4343;53.648;10.098;2023-07-09T13:41:40;4.65;;;4.35;;
8610;SDS011;4343;53.648;10.098;2023-07-09T13:44:11;4.32;;;4.03;;
8610;SDS011;4343;53.648;10.098;2023-07-09T13:46:45;4.70;;;4.28;;
8610;SDS011;4343;53.648;10.098;2023-07-09T13:49:12;4.25;;;4.05;;
8610;SDS011;4343;53.648;10.098;2023-07-09T13:51:43;4.75;;;4.45;;
8610;SDS011;4343;53.648;10.098;2023-07-09T13:54:15;5.07;;;4.78;;
8610;SDS011;4343;53.648;10.098;2023-07-09T13:56:43;4.82;;;4.55;;
8610;SDS011;4343;53.648;10.098;2023-07-09T13:59:17;4.80;;;4.50;;
8610;SDS011;4343;53.648;10.098;2023-07-09T14:01:44;4.63;;;4.43;;
8610;SDS011;4343;53.648;10.098;2023-07-09T14:04:11;5.15;;;4.72;;
8610;SDS011;4343;53.648;10.098;2023-07-09T14:06:38;4.95;;;4.55;;
8610;SDS011;4343;53.648;10.098;2023-07-09T14:09:05;5.18;;;4.70;;
8610;SDS011;4343;53.648;10.098;2023-07-09T14:11:31;5.15;;;4.85;;
8610;SDS011;4343;53.648;10.098;2023-07-09T14:13:57;5.07;;;4.78;;
8610;SDS011;4343;53.648;10.098;2023-07-09T14:16:23;5.10;;;4.75;;
8610;SDS011;4343;53.648;10.098;2023-07-09T14:18:48;5.00;;;4.70;;
8610;SDS011;4343;53.648;10.098;2023-07-09T14:21:14;4.93;;;4.63;;
8610;SDS011;4343;53.648;10.098;2023-07-09T14:23:41;5.85;;;4.68;;
8610;SDS011;4343;53.648;10.098;2023-07-09T14:26:09;4.80;;;4.60;;
8610;SDS011;4343;53.648;10.098;2023-07-09T14:28:34;5.10;;;4.72;;
8610;SDS011;4343;53.648;10.098;2023-07-09T14:31:03;5.40;;;4.75;;
8610;SDS011;4343;53.648;10.098;2023-07-09T14:33:29;5.15;;;4.75;;
8610;SDS011;4343;53.648;10.098;2023-07-09T14:35:55;5.07;;;4.78;;
8610;SDS011;4343;53.648;10.098;2023-07-09T14:38:21;5.35;;;4.93;;
8610;SDS011;4343;53.648;10.098;2023-07-09T14:40:49;5.35;;;4.93;;
8610;SDS011;4343;53.648;10.098;2023-07-09T14:43:16;5.40;;;5.05;;
8610;SDS011;4343;53.648;10.098;2023-07-09T14:45:42;4.70;;;4.50;;
8610;SDS011;4343;53.648;10.098;2023-07-09T14:48:25;4.82;;;4.53;;
8610;SDS011;4343;53.648;10.098;2023-07-09T14:50:51;4.63;;;4.32;;
8610;SDS011;4343;53.648;10.098;2023-07-09T14:53:20;5.45;;;5.05;;
8610;SDS011;4343;53.648;10.098;2023-07-09T14:55:49;5.43;;;5.07;;
8610;SDS011;4343;53.648;10.098;2023-07-09T14:58:15;4.90;;;4.50;;
8610;SDS011;4343;53.648;10.098;2023-07-09T15:00:43;5.30;;;5.00;;
8610;SDS011;4343;53.648;10.098;2023-07-09T15:03:11;5.68;;;5.15;;
8610;SDS011;4343;53.648;10.098;2023-07-09T15:05:45;4.82;;;4.63;;
8610;SDS011;4343;53.648;10.098;2023-07-09T15:08:18;5.05;;;4.68;;
8610;SDS011;4343;53.648;10.098;2023-07-09T15:10:49;5.53;;;5.13;;
8610;SDS011;4343;53.648;10.098;2023-07-09T15:13:18;5.55;;;4.97;;
8610;SDS011;4343;53.648;10.098;2023-07-09T15:15:54;4.90;;;4.60;;
8610;SDS011;4343;53.648;10.098;2023-07-09T15:18:20;4.63;;;4.43;;
8610;SDS011;4343;53.648;10.098;2023-07-09T15:20:47;5.20;;;4.88;;
8610;SDS011;4343;53.648;10.098;2023-07-09T15:23:15;4.90;;;4.50;;
8610;SDS011;4343;53.648;10.098;2023-07-09T15:25:40;5.43;;;5.00;;
8610;SDS011;4343;53.648;10.098;2023-07-09T15:28:08;5.55;;;4.70;;
8610;SDS011;4343;53.648;10.098;2023-07-09T15:30:35;5.10;;;4.82;;
8610;SDS011;4343;53.648;10.098;2023-07-09T15:33:02;4.40;;;4.20;;
8610;SDS011;4343;53.648;10.098;2023-07-09T15:35:31;5.20;;;4.90;;
8610;SDS011;4343;53.648;10.098;2023-07-09T15:37:58;4.68;;;4.28;;
8610;SDS011;4343;53.648;10.098;2023-07-09T15:40:25;4.28;;;3.97;;
8610;SDS011;4343;53.648;10.098;2023-07-09T15:42:54;5.50;;;5.20;;
8610;SDS011;4343;53.648;10.098;2023-07-09T15:45:22;8.07;;;5.68;;
8610;SDS011;4343;53.648;10.098;2023-07-09T15:47:49;6.28;;;4.72;;